sensor_id;sensor_type;location;lat;lon;timestamp;P1;durP1;ratioP1;P2;durP2;ratioP2
35693;SDS011;21812;55.536;37.664;2023-08-21T00:02:23;2.90;;;1.15;;
35693;SDS011;21812;55.536;37.664;2023-08-21T00:04:50;2.15;;;1.40;;
35693;SDS011;21812;55.536;37.664;2023-08-21T00:07:16;1.60;;;1.20;;
35693;SDS011;21812;55.536;37.664;2023-08-21T00:09:42;1.40;;;1.25;;
35693;SDS011;21812;55.536;37.664;2023-08-21T00:12:08;3.75;;;1.60;;
35693;SDS011;21812;55.536;37.664;2023-08-21T00:14:34;2.67;;;1.60;;
35693;SDS011;21812;55.536;37.664;2023-08-21T00:17:01;1.98;;;1.70;;
35693;SDS011;21812;55.536;37.664;2023-08-21T00:19:28;2.63;;;2.22;;
35693;SDS011;21812;55.536;37.664;2023-08-21T00:21:54;3.53;;;2.55;;
35693;SDS011;21812;55.536;37.664;2023-08-21T00:24:20;3.03;;;2.72;;
35693;SDS011;21812;55.536;37.664;2023-08-21T00:26:46;5.20;;;3.30;;
35693;SDS011;21812;55.536;37.664;2023-08-21T00:29:12;3.90;;;2.80;;
35693;SDS011;21812;55.536;37.664;2023-08-21T00:31:38;5.53;;;2.60;;
35693;SDS011;21812;55.536;37.664;2023-08-21T00:34:03;4.72;;;3.42;;
35693;SDS011;21812;55.536;37.664;2023-08-21T00:36:29;5.53;;;4.15;;
35693;SDS011;21812;55.536;37.664;2023-08-21T00:38:55;3.45;;;2.50;;
35693;SDS011;21812;55.536;37.664;2023-08-21T00:41:20;3.28;;;3.03;;
35693;SDS011;21812;55.536;37.664;2023-08-21T00:43:46;3.67;;;3.05;;
35693;SDS011;21812;55.536;37.664;2023-08-21T00:46:13;5.80;;;3.40;;
35693;SDS011;21812;55.536;37.664;2023-08-21T00:48:39;5.45;;;4.90;;
35693;SDS011;21812;55.536;37.664;2023-08-21T00:51:05;3.75;;;3.13;;
35693;SDS011;21812;55.536;37.664;2023-08-21T00:53:32;4.22;;;3.17;;
35693;SDS011;21812;55.536;37.664;2023-08-21T00:55:58;8.48;;;5.00;;
35693;SDS011;21812;55.536;37.664;2023-08-21T00:58:24;5.18;;;4.28;;
35693;SDS011;21812;55.536;37.664;2023-08-21T01:00:50;5.05;;;4.03;;
35693;SDS011;21812;55.536;37.664;2023-08-21T01:03:18;4.63;;;4.22;;
35693;SDS011;21812;55.536;37.664;2023-08-21T01:05:44;4.50;;;4.10;;
35693;SDS011;21812;55.536;37.664;2023-08-21T01:10:52;4.57;;;4.18;;
35693;SDS011;21812;55.536;37.664;2023-08-21T01:16:09;4.65;;;4.10;;
35693;SDS011;21812;55.536;37.664;2023-08-21T01:18:37;4.68;;;4.18;;
35693;SDS011;21812;55.536;37.664;2023-08-21T01:21:04;5.93;;;5.30;;
35693;SDS011;21812;55.536;37.664;2023-08-21T01:23:32;7.93;;;4.70;;
35693;SDS011;21812;55.536;37.664;2023-08-21T01:26:02;5.60;;;5.10;;
35693;SDS011;21812;55.536;37.664;2023-08-21T01:28:30;5.43;;;4.93;;
35693;SDS011;21812;55.536;37.664;2023-08-21T01:31:21;5.65;;;5.07;;
35693;SDS011;21812;55.536;37.664;2023-08-21T01:33:51;7.30;;;3.88;;
35693;SDS011;21812;55.536;37.664;2023-08-21T01:36:21;5.22;;;4.72;;
35693;SDS011;21812;55.536;37.664;2023-08-21T01:38:48;4.45;;;4.10;;
35693;SDS011;21812;55.536;37.664;2023-08-21T01:41:15;4.40;;;3.97;;
35693;SDS011;21812;55.536;37.664;2023-08-21T01:43:41;5.00;;;4.53;;
35693;SDS011;21812;55.536;37.664;2023-08-21T01:46:08;5.32;;;4.20;;
35693;SDS011;21812;55.536;37.664;2023-08-21T01:48:34;5.10;;;4.50;;
35693;SDS011;21812;55.536;37.664;2023-08-21T01:51:02;5.55;;;4.68;;
35693;SDS011;21812;55.536;37.664;2023-08-21T01:53:28;4.10;;;3.70;;
35693;SDS011;21812;55.536;37.664;2023-08-21T01:55:54;5.85;;;4.75;;
35693;SDS011;21812;55.536;37.664;2023-08-21T01:58:20;5.35;;;4.25;;
35693;SDS011;21812;55.536;37.664;2023-08-21T02:00:46;4.93;;;4.00;;
35693;SDS011;21812;55.536;37.664;2023-08-21T02:03:12;8.80;;;4.63;;
35693;SDS011;21812;55.536;37.664;2023-08-21T02:05:39;4.88;;;4.38;;
35693;SDS011;21812;55.536;37.664;2023-08-21T02:08:06;4.75;;;4.35;;
35693;SDS011;21812;55.536;37.664;2023-08-21T02:10:34;5.50;;;5.00;;
35693;SDS011;21812;55.536;37.664;2023-08-21T02:13:00;5.25;;;4.68;;
35693;SDS011;21812;55.536;37.664;2023-08-21T02:15:26;4.70;;;4.25;;
35693;SDS011;21812;55.536;37.664;2023-08-21T02:17:52;4.32;;;3.92;;
35693;SDS011;21812;55.536;37.664;2023-08-21T02:20:19;5.43;;;4.93;;
35693;SDS011;21812;55.536;37.664;2023-08-21T02:22:45;8.27;;;5.22;;
35693;SDS011;21812;55.536;37.664;2023-08-21T02:25:10;7.15;;;4.93;;
35693;SDS011;21812;55.536;37.664;2023-08-21T02:27:36;5.28;;;4.75;;
35693;SDS011;21812;55.536;37.664;2023-08-21T02:30:02;5.00;;;3.85;;
35693;SDS011;21812;55.536;37.664;2023-08-21T02:32:30;5.45;;;4.22;;
35693;SDS011;21812;55.536;37.664;2023-08-21T02:34:56;5.55;;;4.30;;
35693;SDS011;21812;55.536;37.664;2023-08-21T02:37:22;4.70;;;4.20;;
35693;SDS011;21812;55.536;37.664;2023-08-21T02:39:48;4.80;;;3.80;;
35693;SDS011;21812;55.536;37.664;2023-08-21T02:42:13;5.05;;;3.95;;
35693;SDS011;21812;55.536;37.664;2023-08-21T02:44:39;5.13;;;3.92;;
35693;SDS011;21812;55.536;37.664;2023-08-21T02:47:05;4.75;;;4.00;;
35693;SDS011;21812;55.536;37.664;2023-08-21T02:49:31;7.70;;;4.30;;
35693;SDS011;21812;55.536;37.664;2023-08-21T02:51:57;8.00;;;3.45;;
35693;SDS011;21812;55.536;37.664;2023-08-21T02:54:23;5.38;;;3.08;;
35693;SDS011;21812;55.536;37.664;2023-08-21T02:56:48;4.72;;;3.92;;
35693;SDS011;21812;55.536;37.664;2023-08-21T02:59:14;6.07;;;3.75;;
35693;SDS011;21812;55.536;37.664;2023-08-21T03:01:40;3.72;;;3.42;;
35693;SDS011;21812;55.536;37.664;2023-08-21T03:04:06;5.47;;;3.70;;
35693;SDS011;21812;55.536;37.664;2023-08-21T03:06:31;5.30;;;3.15;;
35693;SDS011;21812;55.536;37.664;2023-08-21T03:08:57;5.63;;;3.55;;
35693;SDS011;21812;55.536;37.664;2023-08-21T03:11:24;4.68;;;3.65;;
35693;SDS011;21812;55.536;37.664;2023-08-21T03:13:51;5.07;;;3.58;;
35693;SDS011;21812;55.536;37.664;2023-08-21T03:16:16;3.78;;;3.28;;
35693;SDS011;21812;55.536;37.664;2023-08-21T03:18:58;5.38;;;3.17;;
35693;SDS011;21812;55.536;37.664;2023-08-21T03:21:27;5.38;;;3.55;;
35693;SDS011;21812;55.536;37.664;2023-08-21T03:23:54;4.30;;;2.92;;
35693;SDS011;21812;55.536;37.664;2023-08-21T03:26:22;5.28;;;2.92;;
35693;SDS011;21812;55.536;37.664;2023-08-21T03:28:48;4.78;;;3.13;;
35693;SDS011;21812;55.536;37.664;2023-08-21T03:31:14;4.90;;;3.45;;
35693;SDS011;21812;55.536;37.664;2023-08-21T03:33:41;3.47;;;2.60;;
35693;SDS011;21812;55.536;37.664;2023-08-21T03:36:07;4.30;;;3.08;;
35693;SDS011;21812;55.536;37.664;2023-08-21T03:38:34;5.93;;;2.85;;
35693;SDS011;21812;55.536;37.664;2023-08-21T03:41:00;3.97;;;3.15;;
35693;SDS011;21812;55.536;37.664;2023-08-21T03:43:26;6.18;;;2.85;;
35693;SDS011;21812;55.536;37.664;2023-08-21T03:45:51;7.88;;;3.38;;
35693;SDS011;21812;55.536;37.664;2023-08-21T03:48:17;2.90;;;2.17;;
35693;SDS011;21812;55.536;37.664;2023-08-21T03:50:43;8.48;;;3.00;;
35693;SDS011;21812;55.536;37.664;2023-08-21T03:53:09;5.35;;;3.20;;
35693;SDS011;21812;55.536;37.664;2023-08-21T03:55:35;6.38;;;3.10;;
35693;SDS011;21812;55.536;37.664;2023-08-21T03:58:00;4.85;;;2.60;;
35693;SDS011;21812;55.536;37.664;2023-08-21T04:00:26;4.72;;;2.65;;
35693;SDS011;21812;55.536;37.664;2023-08-21T04:02:52;5.78;;;3.38;;
35693;SDS011;21812;55.536;37.664;2023-08-21T04:05:18;7.50;;;3.00;;
35693;SDS011;21812;55.536;37.664;2023-08-21T04:07:44;6.57;;;2.65;;
35693;SDS011;21812;55.536;37.664;2023-08-21T04:10:10;7.93;;;3.33;;
35693;SDS011;21812;55.536;37.664;2023-08-21T04:12:36;4.70;;;2.97;;
35693;SDS011;21812;55.536;37.664;2023-08-21T04:15:02;12.65;;;3.80;;
35693;SDS011;21812;55.536;37.664;2023-08-21T04:17:30;2.80;;;2.47;;
35693;SDS011;21812;55.536;37.664;2023-08-21T04:19:56;6.63;;;3.25;;
35693;SDS011;21812;55.536;37.664;2023-08-21T04:22:21;7.22;;;3.20;;
35693;SDS011;21812;55.536;37.664;2023-08-21T04:24:47;6.70;;;2.65;;
35693;SDS011;21812;55.536;37.664;2023-08-21T04:27:13;9.27;;;3.08;;
35693;SDS011;21812;55.536;37.664;2023-08-21T04:29:38;6.07;;;2.97;;
35693;SDS011;21812;55.536;37.664;2023-08-21T04:32:05;5.47;;;2.35;;
35693;SDS011;21812;55.536;37.664;2023-08-21T04:34:32;6.88;;;2.60;;
35693;SDS011;21812;55.536;37.664;2023-08-21T04:36:58;10.20;;;3.15;;
35693;SDS011;21812;55.536;37.664;2023-08-21T04:39:25;7.97;;;3.85;;
35693;SDS011;21812;55.536;37.664;2023-08-21T04:41:51;10.63;;;3.30;;
35693;SDS011;21812;55.536;37.664;2023-08-21T04:44:17;6.68;;;3.35;;
35693;SDS011;21812;55.536;37.664;2023-08-21T04:46:47;12.77;;;3.92;;
35693;SDS011;21812;55.536;37.664;2023-08-21T04:49:14;5.82;;;2.80;;
35693;SDS011;21812;55.536;37.664;2023-08-21T04:51:40;11.32;;;3.65;;
35693;SDS011;21812;55.536;37.664;2023-08-21T04:54:06;10.93;;;3.22;;
35693;SDS011;21812;55.536;37.664;2023-08-21T04:56:31;4.40;;;2.75;;
35693;SDS011;21812;55.536;37.664;2023-08-21T04:58:57;11.07;;;3.53;;
35693;SDS011;21812;55.536;37.664;2023-08-21T05:01:25;2.97;;;2.00;;
35693;SDS011;21812;55.536;37.664;2023-08-21T05:03:51;6.22;;;2.60;;
35693;SDS011;21812;55.536;37.664;2023-08-21T05:06:18;2.72;;;1.95;;
35693;SDS011;21812;55.536;37.664;2023-08-21T05:08:44;5.18;;;2.17;;
35693;SDS011;21812;55.536;37.664;2023-08-21T05:11:10;6.20;;;2.88;;
35693;SDS011;21812;55.536;37.664;2023-08-21T05:13:37;5.68;;;2.38;;
35693;SDS011;21812;55.536;37.664;2023-08-21T05:16:06;4.70;;;2.47;;
35693;SDS011;21812;55.536;37.664;2023-08-21T05:18:35;2.70;;;1.88;;
35693;SDS011;21812;55.536;37.664;2023-08-21T05:21:01;5.43;;;2.13;;
35693;SDS011;21812;55.536;37.664;2023-08-21T05:23:28;2.22;;;1.70;;
35693;SDS011;21812;55.536;37.664;2023-08-21T05:25:59;9.93;;;3.13;;
35693;SDS011;21812;55.536;37.664;2023-08-21T05:28:24;5.35;;;2.33;;
35693;SDS011;21812;55.536;37.664;2023-08-21T05:30:50;9.07;;;2.15;;
35693;SDS011;21812;55.536;37.664;2023-08-21T05:33:18;10.32;;;3.08;;
35693;SDS011;21812;55.536;37.664;2023-08-21T05:35:45;8.70;;;3.33;;
35693;SDS011;21812;55.536;37.664;2023-08-21T05:38:11;9.15;;;3.33;;
35693;SDS011;21812;55.536;37.664;2023-08-21T05:40:36;8.85;;;2.63;;
35693;SDS011;21812;55.536;37.664;2023-08-21T05:43:02;34.40;;;10.98;;
35693;SDS011;21812;55.536;37.664;2023-08-21T05:45:29;109.18;;;31.83;;
35693;SDS011;21812;55.536;37.664;2023-08-21T05:47:56;237.18;;;142.65;;
35693;SDS011;21812;55.536;37.664;2023-08-21T05:50:22;74.65;;;40.40;;
35693;SDS011;21812;55.536;37.664;2023-08-21T05:52:48;32.17;;;14.20;;
35693;SDS011;21812;55.536;37.664;2023-08-21T05:55:14;11.20;;;3.85;;
35693;SDS011;21812;55.536;37.664;2023-08-21T05:57:40;7.18;;;3.38;;
35693;SDS011;21812;55.536;37.664;2023-08-21T06:00:06;11.95;;;3.97;;
35693;SDS011;21812;55.536;37.664;2023-08-21T06:02:41;6.18;;;3.53;;
35693;SDS011;21812;55.536;37.664;2023-08-21T06:05:17;9.43;;;3.80;;
35693;SDS011;21812;55.536;37.664;2023-08-21T06:07:46;6.50;;;2.78;;
35693;SDS011;21812;55.536;37.664;2023-08-21T06:10:11;6.50;;;2.83;;
35693;SDS011;21812;55.536;37.664;2023-08-21T06:12:39;6.95;;;2.72;;
35693;SDS011;21812;55.536;37.664;2023-08-21T06:15:07;5.30;;;2.38;;
35693;SDS011;21812;55.536;37.664;2023-08-21T06:17:37;8.13;;;3.03;;
35693;SDS011;21812;55.536;37.664;2023-08-21T06:20:03;6.50;;;2.95;;
35693;SDS011;21812;55.536;37.664;2023-08-21T06:22:36;7.85;;;3.08;;
35693;SDS011;21812;55.536;37.664;2023-08-21T06:25:03;3.85;;;2.40;;
35693;SDS011;21812;55.536;37.664;2023-08-21T06:27:29;6.68;;;1.85;;
35693;SDS011;21812;55.536;37.664;2023-08-21T06:29:55;6.63;;;3.10;;
35693;SDS011;21812;55.536;37.664;2023-08-21T06:32:21;3.17;;;1.70;;
35693;SDS011;21812;55.536;37.664;2023-08-21T06:34:47;4.20;;;1.80;;
35693;SDS011;21812;55.536;37.664;2023-08-21T06:37:13;4.05;;;1.65;;
35693;SDS011;21812;55.536;37.664;2023-08-21T06:39:42;7.20;;;2.53;;
35693;SDS011;21812;55.536;37.664;2023-08-21T06:42:07;14.18;;;2.88;;
35693;SDS011;21812;55.536;37.664;2023-08-21T06:44:40;3.47;;;1.65;;
35693;SDS011;21812;55.536;37.664;2023-08-21T06:47:06;5.53;;;1.80;;
35693;SDS011;21812;55.536;37.664;2023-08-21T06:49:32;3.97;;;2.00;;
35693;SDS011;21812;55.536;37.664;2023-08-21T06:51:58;4.10;;;1.67;;
35693;SDS011;21812;55.536;37.664;2023-08-21T06:54:24;3.80;;;2.30;;
35693;SDS011;21812;55.536;37.664;2023-08-21T06:56:49;5.13;;;2.30;;
35693;SDS011;21812;55.536;37.664;2023-08-21T06:59:15;2.25;;;1.45;;
35693;SDS011;21812;55.536;37.664;2023-08-21T07:01:41;5.13;;;1.85;;
35693;SDS011;21812;55.536;37.664;2023-08-21T07:04:07;3.83;;;1.60;;
35693;SDS011;21812;55.536;37.664;2023-08-21T07:06:32;3.63;;;1.73;;
35693;SDS011;21812;55.536;37.664;2023-08-21T07:08:58;2.25;;;1.55;;
35693;SDS011;21812;55.536;37.664;2023-08-21T07:11:24;2.72;;;1.50;;
35693;SDS011;21812;55.536;37.664;2023-08-21T07:13:49;4.45;;;1.70;;
35693;SDS011;21812;55.536;37.664;2023-08-21T07:16:15;3.78;;;1.83;;
35693;SDS011;21812;55.536;37.664;2023-08-21T07:18:40;8.00;;;3.10;;
35693;SDS011;21812;55.536;37.664;2023-08-21T07:21:06;4.32;;;2.42;;
35693;SDS011;21812;55.536;37.664;2023-08-21T07:23:32;6.97;;;5.05;;
35693;SDS011;21812;55.536;37.664;2023-08-21T07:25:59;5.53;;;2.00;;
35693;SDS011;21812;55.536;37.664;2023-08-21T07:28:25;4.95;;;1.65;;
35693;SDS011;21812;55.536;37.664;2023-08-21T07:30:54;3.17;;;1.63;;
35693;SDS011;21812;55.536;37.664;2023-08-21T07:33:22;2.35;;;1.20;;
35693;SDS011;21812;55.536;37.664;2023-08-21T07:35:56;3.72;;;1.30;;
35693;SDS011;21812;55.536;37.664;2023-08-21T07:38:23;1.42;;;1.30;;
35693;SDS011;21812;55.536;37.664;2023-08-21T07:40:48;3.60;;;2.60;;
35693;SDS011;21812;55.536;37.664;2023-08-21T07:43:14;4.63;;;1.60;;
35693;SDS011;21812;55.536;37.664;2023-08-21T07:45:40;2.80;;;1.77;;
35693;SDS011;21812;55.536;37.664;2023-08-21T07:48:05;5.70;;;1.30;;
35693;SDS011;21812;55.536;37.664;2023-08-21T07:50:31;9.93;;;3.97;;
35693;SDS011;21812;55.536;37.664;2023-08-21T07:52:57;3.92;;;2.42;;
35693;SDS011;21812;55.536;37.664;2023-08-21T07:55:23;5.68;;;3.42;;
35693;SDS011;21812;55.536;37.664;2023-08-21T07:57:49;5.88;;;2.08;;
35693;SDS011;21812;55.536;37.664;2023-08-21T08:00:15;3.90;;;2.03;;
35693;SDS011;21812;55.536;37.664;2023-08-21T08:02:42;4.97;;;3.33;;
35693;SDS011;21812;55.536;37.664;2023-08-21T08:05:08;2.78;;;1.70;;
35693;SDS011;21812;55.536;37.664;2023-08-21T08:07:34;3.65;;;1.88;;
35693;SDS011;21812;55.536;37.664;2023-08-21T08:10:00;4.03;;;1.95;;
35693;SDS011;21812;55.536;37.664;2023-08-21T08:12:26;2.15;;;1.58;;
35693;SDS011;21812;55.536;37.664;2023-08-21T08:14:51;2.08;;;1.50;;
35693;SDS011;21812;55.536;37.664;2023-08-21T08:17:17;5.53;;;1.58;;
35693;SDS011;21812;55.536;37.664;2023-08-21T08:19:43;4.97;;;2.00;;
35693;SDS011;21812;55.536;37.664;2023-08-21T08:22:08;3.15;;;2.10;;
35693;SDS011;21812;55.536;37.664;2023-08-21T08:24:34;3.45;;;1.75;;
35693;SDS011;21812;55.536;37.664;2023-08-21T08:27:00;4.03;;;1.35;;
35693;SDS011;21812;55.536;37.664;2023-08-21T08:29:25;5.63;;;2.03;;
35693;SDS011;21812;55.536;37.664;2023-08-21T08:31:51;5.20;;;2.15;;
35693;SDS011;21812;55.536;37.664;2023-08-21T08:34:17;4.70;;;2.00;;
35693;SDS011;21812;55.536;37.664;2023-08-21T08:36:46;3.55;;;1.70;;
35693;SDS011;21812;55.536;37.664;2023-08-21T08:39:11;5.80;;;1.67;;
35693;SDS011;21812;55.536;37.664;2023-08-21T08:44:28;1.80;;;1.42;;
35693;SDS011;21812;55.536;37.664;2023-08-21T08:46:55;3.53;;;2.63;;
35693;SDS011;21812;55.536;37.664;2023-08-21T08:49:24;2.40;;;1.65;;
35693;SDS011;21812;55.536;37.664;2023-08-21T08:51:50;4.38;;;1.90;;
35693;SDS011;21812;55.536;37.664;2023-08-21T08:54:17;2.17;;;1.35;;
35693;SDS011;21812;55.536;37.664;2023-08-21T08:56:44;6.07;;;2.05;;
35693;SDS011;21812;55.536;37.664;2023-08-21T08:59:09;4.47;;;1.90;;
35693;SDS011;21812;55.536;37.664;2023-08-21T09:01:35;5.13;;;2.47;;
35693;SDS011;21812;55.536;37.664;2023-08-21T09:04:03;5.72;;;2.50;;
35693;SDS011;21812;55.536;37.664;2023-08-21T09:06:29;4.60;;;3.08;;
35693;SDS011;21812;55.536;37.664;2023-08-21T09:08:57;3.20;;;1.55;;
35693;SDS011;21812;55.536;37.664;2023-08-21T09:11:23;1.75;;;1.35;;
35693;SDS011;21812;55.536;37.664;2023-08-21T09:13:49;2.05;;;1.40;;
35693;SDS011;21812;55.536;37.664;2023-08-21T09:16:17;2.53;;;1.40;;
35693;SDS011;21812;55.536;37.664;2023-08-21T09:18:47;2.30;;;1.38;;
35693;SDS011;21812;55.536;37.664;2023-08-21T09:21:20;3.55;;;1.63;;
35693;SDS011;21812;55.536;37.664;2023-08-21T09:23:47;2.30;;;1.30;;
35693;SDS011;21812;55.536;37.664;2023-08-21T09:26:18;2.22;;;1.77;;
35693;SDS011;21812;55.536;37.664;2023-08-21T09:28:46;3.47;;;2.15;;
35693;SDS011;21812;55.536;37.664;2023-08-21T09:31:13;6.78;;;2.78;;
35693;SDS011;21812;55.536;37.664;2023-08-21T09:33:39;5.13;;;1.80;;
35693;SDS011;21812;55.536;37.664;2023-08-21T09:36:05;4.22;;;2.67;;
35693;SDS011;21812;55.536;37.664;2023-08-21T09:38:32;3.15;;;1.70;;
35693;SDS011;21812;55.536;37.664;2023-08-21T09:41:00;3.00;;;1.50;;
35693;SDS011;21812;55.536;37.664;2023-08-21T09:43:26;2.97;;;1.60;;
35693;SDS011;21812;55.536;37.664;2023-08-21T09:45:53;7.53;;;1.77;;
35693;SDS011;21812;55.536;37.664;2023-08-21T09:48:24;3.97;;;2.15;;
35693;SDS011;21812;55.536;37.664;2023-08-21T09:50:55;3.00;;;1.90;;
35693;SDS011;21812;55.536;37.664;2023-08-21T09:53:21;4.30;;;1.75;;
35693;SDS011;21812;55.536;37.664;2023-08-21T09:55:52;6.20;;;1.48;;
35693;SDS011;21812;55.536;37.664;2023-08-21T09:58:19;3.40;;;1.27;;
35693;SDS011;21812;55.536;37.664;2023-08-21T10:00:45;4.45;;;1.70;;
35693;SDS011;21812;55.536;37.664;2023-08-21T10:03:14;2.25;;;1.98;;
35693;SDS011;21812;55.536;37.664;2023-08-21T10:05:43;5.03;;;2.20;;
35693;SDS011;21812;55.536;37.664;2023-08-21T10:08:10;3.42;;;2.10;;
35693;SDS011;21812;55.536;37.664;2023-08-21T10:10:37;3.05;;;1.88;;
35693;SDS011;21812;55.536;37.664;2023-08-21T10:13:04;3.85;;;2.17;;
35693;SDS011;21812;55.536;37.664;2023-08-21T10:15:32;8.23;;;1.70;;
35693;SDS011;21812;55.536;37.664;2023-08-21T10:18:18;5.93;;;1.90;;
35693;SDS011;21812;55.536;37.664;2023-08-21T10:20:46;7.53;;;2.10;;
35693;SDS011;21812;55.536;37.664;2023-08-21T10:23:23;4.50;;;1.80;;
35693;SDS011;21812;55.536;37.664;2023-08-21T10:25:58;3.17;;;2.20;;
35693;SDS011;21812;55.536;37.664;2023-08-21T10:28:40;2.80;;;1.90;;
35693;SDS011;21812;55.536;37.664;2023-08-21T10:31:29;1.73;;;1.50;;
35693;SDS011;21812;55.536;37.664;2023-08-21T10:33:54;2.60;;;1.75;;
35693;SDS011;21812;55.536;37.664;2023-08-21T10:39:20;2.88;;;1.80;;
35693;SDS011;21812;55.536;37.664;2023-08-21T10:41:56;5.90;;;1.35;;
35693;SDS011;21812;55.536;37.664;2023-08-21T10:47:20;5.13;;;2.30;;
35693;SDS011;21812;55.536;37.664;2023-08-21T10:49:47;5.10;;;1.83;;
35693;SDS011;21812;55.536;37.664;2023-08-21T10:52:28;2.90;;;1.80;;
35693;SDS011;21812;55.536;37.664;2023-08-21T10:54:56;3.05;;;1.25;;
35693;SDS011;21812;55.536;37.664;2023-08-21T10:57:23;3.47;;;1.27;;
35693;SDS011;21812;55.536;37.664;2023-08-21T10:59:59;4.00;;;1.55;;
35693;SDS011;21812;55.536;37.664;2023-08-21T11:02:27;2.95;;;1.50;;
35693;SDS011;21812;55.536;37.664;2023-08-21T11:04:57;3.67;;;1.63;;
35693;SDS011;21812;55.536;37.664;2023-08-21T11:07:24;3.92;;;1.73;;
35693;SDS011;21812;55.536;37.664;2023-08-21T11:09:51;2.13;;;1.48;;
35693;SDS011;21812;55.536;37.664;2023-08-21T11:12:18;2.17;;;1.60;;
35693;SDS011;21812;55.536;37.664;2023-08-21T11:14:45;2.42;;;1.48;;
35693;SDS011;21812;55.536;37.664;2023-08-21T11:17:11;4.07;;;1.70;;
35693;SDS011;21812;55.536;37.664;2023-08-21T11:19:37;3.90;;;2.28;;
35693;SDS011;21812;55.536;37.664;2023-08-21T11:22:04;4.93;;;1.50;;
35693;SDS011;21812;55.536;37.664;2023-08-21T11:27:07;3.20;;;1.52;;
35693;SDS011;21812;55.536;37.664;2023-08-21T11:32:07;2.95;;;1.90;;
35693;SDS011;21812;55.536;37.664;2023-08-21T11:34:53;6.18;;;1.67;;
35693;SDS011;21812;55.536;37.664;2023-08-21T11:37:28;3.92;;;1.48;;
35693;SDS011;21812;55.536;37.664;2023-08-21T11:39:57;4.40;;;1.65;;
35693;SDS011;21812;55.536;37.664;2023-08-21T11:42:30;2.80;;;1.55;;
35693;SDS011;21812;55.536;37.664;2023-08-21T11:44:58;5.05;;;1.48;;
35693;SDS011;21812;55.536;37.664;2023-08-21T11:47:30;3.50;;;1.90;;
35693;SDS011;21812;55.536;37.664;2023-08-21T11:50:01;3.90;;;1.77;;
35693;SDS011;21812;55.536;37.664;2023-08-21T11:52:31;4.03;;;1.65;;
35693;SDS011;21812;55.536;37.664;2023-08-21T11:55:06;2.13;;;1.35;;
35693;SDS011;21812;55.536;37.664;2023-08-21T11:57:33;6.13;;;1.83;;
35693;SDS011;21812;55.536;37.664;2023-08-21T11:59:59;6.53;;;1.40;;
35693;SDS011;21812;55.536;37.664;2023-08-21T12:02:26;3.47;;;1.40;;
35693;SDS011;21812;55.536;37.664;2023-08-21T12:04:53;4.20;;;1.40;;
35693;SDS011;21812;55.536;37.664;2023-08-21T12:07:31;3.65;;;1.40;;
35693;SDS011;21812;55.536;37.664;2023-08-21T12:09:58;2.38;;;1.50;;
35693;SDS011;21812;55.536;37.664;2023-08-21T12:12:24;3.13;;;1.50;;
35693;SDS011;21812;55.536;37.664;2023-08-21T12:14:50;2.42;;;1.60;;
35693;SDS011;21812;55.536;37.664;2023-08-21T12:17:16;3.75;;;1.50;;
35693;SDS011;21812;55.536;37.664;2023-08-21T12:19:41;4.57;;;1.77;;
35693;SDS011;21812;55.536;37.664;2023-08-21T12:22:08;1.90;;;1.20;;
35693;SDS011;21812;55.536;37.664;2023-08-21T12:24:34;1.92;;;1.10;;
35693;SDS011;21812;55.536;37.664;2023-08-21T12:27:00;2.03;;;1.48;;
35693;SDS011;21812;55.536;37.664;2023-08-21T12:29:26;3.22;;;1.33;;
35693;SDS011;21812;55.536;37.664;2023-08-21T12:31:52;1.67;;;1.30;;
35693;SDS011;21812;55.536;37.664;2023-08-21T12:34:18;1.77;;;1.23;;
35693;SDS011;21812;55.536;37.664;2023-08-21T12:36:44;2.88;;;1.05;;
35693;SDS011;21812;55.536;37.664;2023-08-21T12:39:10;3.70;;;1.20;;
35693;SDS011;21812;55.536;37.664;2023-08-21T12:41:35;1.80;;;1.15;;
35693;SDS011;21812;55.536;37.664;2023-08-21T12:44:01;2.70;;;1.20;;
35693;SDS011;21812;55.536;37.664;2023-08-21T12:46:34;2.30;;;1.30;;
35693;SDS011;21812;55.536;37.664;2023-08-21T12:49:02;3.13;;;1.80;;
35693;SDS011;21812;55.536;37.664;2023-08-21T12:51:28;2.97;;;1.50;;
35693;SDS011;21812;55.536;37.664;2023-08-21T12:53:54;2.08;;;1.00;;
35693;SDS011;21812;55.536;37.664;2023-08-21T12:56:20;2.33;;;1.63;;
35693;SDS011;21812;55.536;37.664;2023-08-21T12:58:47;9.80;;;1.63;;
35693;SDS011;21812;55.536;37.664;2023-08-21T13:01:13;4.28;;;1.40;;
35693;SDS011;21812;55.536;37.664;2023-08-21T13:03:46;1.50;;;1.23;;
35693;SDS011;21812;55.536;37.664;2023-08-21T13:06:12;2.72;;;1.60;;
35693;SDS011;21812;55.536;37.664;2023-08-21T13:08:39;5.68;;;1.45;;
35693;SDS011;21812;55.536;37.664;2023-08-21T13:11:05;3.35;;;1.20;;
35693;SDS011;21812;55.536;37.664;2023-08-21T13:13:31;2.25;;;1.35;;
35693;SDS011;21812;55.536;37.664;2023-08-21T13:15:57;2.13;;;1.38;;
35693;SDS011;21812;55.536;37.664;2023-08-21T13:18:24;2.00;;;1.20;;
35693;SDS011;21812;55.536;37.664;2023-08-21T13:20:49;7.13;;;1.33;;
35693;SDS011;21812;55.536;37.664;2023-08-21T13:23:15;2.65;;;1.38;;
35693;SDS011;21812;55.536;37.664;2023-08-21T13:25:41;3.88;;;1.25;;
35693;SDS011;21812;55.536;37.664;2023-08-21T13:28:07;1.88;;;1.23;;
35693;SDS011;21812;55.536;37.664;2023-08-21T13:30:32;3.15;;;1.20;;
35693;SDS011;21812;55.536;37.664;2023-08-21T13:32:58;2.45;;;1.23;;
35693;SDS011;21812;55.536;37.664;2023-08-21T13:35:24;3.67;;;1.33;;
35693;SDS011;21812;55.536;37.664;2023-08-21T13:37:50;3.70;;;1.45;;
35693;SDS011;21812;55.536;37.664;2023-08-21T13:40:16;4.03;;;1.70;;
35693;SDS011;21812;55.536;37.664;2023-08-21T13:42:42;3.05;;;1.42;;
35693;SDS011;21812;55.536;37.664;2023-08-21T13:45:10;3.13;;;1.40;;
35693;SDS011;21812;55.536;37.664;2023-08-21T13:47:38;3.10;;;1.50;;
35693;SDS011;21812;55.536;37.664;2023-08-21T13:50:04;4.07;;;1.55;;
35693;SDS011;21812;55.536;37.664;2023-08-21T13:52:31;4.45;;;1.70;;
35693;SDS011;21812;55.536;37.664;2023-08-21T13:54:58;3.75;;;1.60;;
35693;SDS011;21812;55.536;37.664;2023-08-21T13:57:25;2.95;;;1.85;;
35693;SDS011;21812;55.536;37.664;2023-08-21T13:59:51;2.15;;;1.42;;
35693;SDS011;21812;55.536;37.664;2023-08-21T14:02:16;2.55;;;1.65;;
35693;SDS011;21812;55.536;37.664;2023-08-21T14:04:44;2.80;;;1.70;;
35693;SDS011;21812;55.536;37.664;2023-08-21T14:07:11;2.17;;;1.63;;
35693;SDS011;21812;55.536;37.664;2023-08-21T14:09:38;6.80;;;1.58;;
35693;SDS011;21812;55.536;37.664;2023-08-21T14:12:04;4.38;;;1.98;;
35693;SDS011;21812;55.536;37.664;2023-08-21T14:14:32;2.92;;;1.50;;
35693;SDS011;21812;55.536;37.664;2023-08-21T14:16:58;6.60;;;2.65;;
35693;SDS011;21812;55.536;37.664;2023-08-21T14:19:24;2.33;;;1.65;;
35693;SDS011;21812;55.536;37.664;2023-08-21T14:21:50;3.67;;;1.58;;
35693;SDS011;21812;55.536;37.664;2023-08-21T14:24:16;6.93;;;1.83;;
35693;SDS011;21812;55.536;37.664;2023-08-21T14:26:42;4.43;;;1.40;;
35693;SDS011;21812;55.536;37.664;2023-08-21T14:29:08;3.03;;;1.38;;
35693;SDS011;21812;55.536;37.664;2023-08-21T14:31:33;3.45;;;1.90;;
35693;SDS011;21812;55.536;37.664;2023-08-21T14:33:59;2.63;;;1.50;;
35693;SDS011;21812;55.536;37.664;2023-08-21T14:36:25;9.10;;;2.45;;
35693;SDS011;21812;55.536;37.664;2023-08-21T14:38:51;3.00;;;1.40;;
35693;SDS011;21812;55.536;37.664;2023-08-21T14:41:17;2.30;;;1.33;;
35693;SDS011;21812;55.536;37.664;2023-08-21T14:43:43;1.95;;;1.73;;
35693;SDS011;21812;55.536;37.664;2023-08-21T14:46:09;3.72;;;1.60;;
35693;SDS011;21812;55.536;37.664;2023-08-21T14:48:35;3.67;;;1.67;;
35693;SDS011;21812;55.536;37.664;2023-08-21T14:51:02;6.05;;;1.70;;
35693;SDS011;21812;55.536;37.664;2023-08-21T14:53:29;5.95;;;1.73;;